Jamaica, VA (23079)

3:54 AM EST on January 17, 2018 (GMT -0500)
Remlik | | Change Station
Active Advisory: Winter Weather Advisory

Elev 20 ft 37.68 °N, 76.62 °W | Updated 3 minutes ago

Mostly Cloudy
Mostly Cloudy
32.2 °F
Feels Like 32 °F
N
0.0
Wind Variable Wind from North
Gusts 0.0 mph

Today
High -- | Low -- °F
--% Chance of Precip.
Yesterday
High -- | Low -- °F
Precip. -- in
Pressure 30.31 in
Visibility 10.0 miles
Clouds Scattered Clouds 6000 ft
Mostly Cloudy 7000 ft
Mostly Cloudy 9000 ft
Windchill 32 °F
Dew Point 31 °F
Humidity 97%
Rainfall 0.00 in
Snow Depth Not available.
7:20 AM 5:14 PM
New Moon, 0% visible
METAR KXSA 170835Z AUTO 33003KT 10SM SCT060 BKN070 BKN090 01/M01 A3031 RMK AO2 T00131011
Pressure 30.31 in
Visibility 10.0 miles
Clouds Scattered Clouds 6000 ft
Mostly Cloudy 7000 ft
Mostly Cloudy 9000 ft
Windchill 32 °F
Dew Point 31 °F
Humidity 97%
Rainfall 0.00 in
Snow Depth Not available.
7:20 AM 5:14 PM
New Moon, 0% visible
METAR KXSA 170835Z AUTO 33003KT 10SM SCT060 BKN070 BKN090 01/M01 A3031 RMK AO2 T00131011

Get Your Daily Forecast Email!

Thanks for signing up!

Be on the lookout for a verification email in your inbox.

You'll start receiving severe weather alerts in your inbox..

×

10-Day Weather Forecast

Almanac

Astronomy

Jan. 17, 2018 Rise Set
Actual Time
Civil Twilight
Nautical Twilight
Astronomical Twilight
Moon
Length of Visible Light
Length of Day
Tomorrow will be .
, % of the Moon is Illuminated

Today's Extremes

State Highs State Lows

Community

WunderPhotos

Category 6

Welcome to Category 6. This is the collective home for Weather Underground's featured writeups by Dr. Jeff Masters (right), Bob Henson (left), Chris Burt, and other regular contributors.

Nearby

Air Quality

  Air Quality AQ Index Pollutant
Not available.

Snow Depth

Station Depth Elevation

Earthquake Activity

City Distance Mag. Time & Date
Minimum magnitude displayed is 2.5.

Coastal Water Temperatures

Place Temperature

Stations

Nearby Weather Stations

Station Location Temp. Windchill Dew Point Humidity Wind Precip. Elev Updated Type
                   

Watches & Warnings

Winter Weather Advisory
Issued: 3:51 AM EST Jan. 17, 2018 – National Weather Service

... Winter Weather Advisory remains in effect until 6 PM EST this
evening...

* what... snow developing. Plan on slippery Road conditions,
including during the morning commute. Snow accumulation of up to
one inch are expected.

* Where... portions of east central, eastern and north central
Virginia.

* When... until 6 PM EST this evening.

* Additional details... be prepared for reduced visibilities at
times.

Precautionary/preparedness actions...

A Winter Weather Advisory for snow means periods of snow will
cause primarily travel difficulties. Be prepared for snow covered
roads and limited visibilities, and use caution while driving.
For the latest Road conditions in Virginia or Maryland, please
call 5 1 1.